sensor_id;sensor_type;location;lat;lon;timestamp;P1;durP1;ratioP1;P2;durP2;ratioP2
23745;SDS011;12053;48.878;9.632;2023-10-09T00:01:44;32.00;;;5.65;;
23745;SDS011;12053;48.878;9.632;2023-10-09T00:04:12;20.65;;;5.47;;
23745;SDS011;12053;48.878;9.632;2023-10-09T00:06:40;19.52;;;5.78;;
23745;SDS011;12053;48.878;9.632;2023-10-09T00:09:08;21.42;;;5.22;;
23745;SDS011;12053;48.878;9.632;2023-10-09T00:14:26;26.77;;;5.60;;
23745;SDS011;12053;48.878;9.632;2023-10-09T00:16:57;21.73;;;5.15;;
23745;SDS011;12053;48.878;9.632;2023-10-09T00:19:48;18.63;;;4.72;;
23745;SDS011;12053;48.878;9.632;2023-10-09T00:22:18;28.63;;;5.47;;
23745;SDS011;12053;48.878;9.632;2023-10-09T00:24:52;22.02;;;5.63;;
23745;SDS011;12053;48.878;9.632;2023-10-09T00:27:41;18.02;;;4.80;;
23745;SDS011;12053;48.878;9.632;2023-10-09T00:32:37;19.60;;;5.10;;
23745;SDS011;12053;48.878;9.632;2023-10-09T00:35:11;25.00;;;5.30;;
23745;SDS011;12053;48.878;9.632;2023-10-09T00:37:57;21.95;;;5.97;;
23745;SDS011;12053;48.878;9.632;2023-10-09T00:40:32;25.15;;;5.53;;
23745;SDS011;12053;48.878;9.632;2023-10-09T00:43:02;20.77;;;5.20;;
23745;SDS011;12053;48.878;9.632;2023-10-09T00:45:32;26.77;;;5.75;;
23745;SDS011;12053;48.878;9.632;2023-10-09T00:48:05;23.63;;;5.43;;
23745;SDS011;12053;48.878;9.632;2023-10-09T00:50:34;21.58;;;5.13;;
23745;SDS011;12053;48.878;9.632;2023-10-09T00:53:02;23.63;;;6.18;;
23745;SDS011;12053;48.878;9.632;2023-10-09T00:55:35;22.27;;;5.55;;
23745;SDS011;12053;48.878;9.632;2023-10-09T00:58:06;27.08;;;6.05;;
23745;SDS011;12053;48.878;9.632;2023-10-09T01:00:41;27.60;;;6.18;;
23745;SDS011;12053;48.878;9.632;2023-10-09T01:03:16;30.83;;;5.53;;
23745;SDS011;12053;48.878;9.632;2023-10-09T01:05:45;30.95;;;6.68;;
23745;SDS011;12053;48.878;9.632;2023-10-09T01:08:24;24.08;;;5.53;;
23745;SDS011;12053;48.878;9.632;2023-10-09T01:10:59;22.45;;;5.10;;
23745;SDS011;12053;48.878;9.632;2023-10-09T01:13:40;22.88;;;5.22;;
23745;SDS011;12053;48.878;9.632;2023-10-09T01:16:08;22.77;;;5.78;;
23745;SDS011;12053;48.878;9.632;2023-10-09T01:18:42;27.58;;;5.50;;
23745;SDS011;12053;48.878;9.632;2023-10-09T01:21:10;27.92;;;5.70;;
23745;SDS011;12053;48.878;9.632;2023-10-09T01:23:45;22.98;;;6.10;;
23745;SDS011;12053;48.878;9.632;2023-10-09T01:26:34;24.48;;;5.82;;
23745;SDS011;12053;48.878;9.632;2023-10-09T01:29:13;20.38;;;5.82;;
23745;SDS011;12053;48.878;9.632;2023-10-09T01:31:41;23.30;;;6.10;;
23745;SDS011;12053;48.878;9.632;2023-10-09T01:34:18;28.65;;;6.35;;
23745;SDS011;12053;48.878;9.632;2023-10-09T01:36:51;26.60;;;6.32;;
23745;SDS011;12053;48.878;9.632;2023-10-09T01:39:22;29.80;;;5.45;;
23745;SDS011;12053;48.878;9.632;2023-10-09T01:41:50;22.33;;;5.57;;
23745;SDS011;12053;48.878;9.632;2023-10-09T01:44:32;29.92;;;5.07;;
23745;SDS011;12053;48.878;9.632;2023-10-09T01:47:09;28.50;;;5.55;;
23745;SDS011;12053;48.878;9.632;2023-10-09T01:49:40;30.35;;;6.28;;
23745;SDS011;12053;48.878;9.632;2023-10-09T01:52:10;26.88;;;5.75;;
23745;SDS011;12053;48.878;9.632;2023-10-09T01:54:43;18.08;;;5.05;;
23745;SDS011;12053;48.878;9.632;2023-10-09T01:57:15;18.90;;;4.80;;
23745;SDS011;12053;48.878;9.632;2023-10-09T01:59:48;25.25;;;5.97;;
23745;SDS011;12053;48.878;9.632;2023-10-09T02:02:16;25.88;;;6.22;;
23745;SDS011;12053;48.878;9.632;2023-10-09T02:04:55;25.30;;;5.15;;
23745;SDS011;12053;48.878;9.632;2023-10-09T02:10:10;31.25;;;5.70;;
23745;SDS011;12053;48.878;9.632;2023-10-09T02:13:03;27.38;;;5.28;;
23745;SDS011;12053;48.878;9.632;2023-10-09T02:15:36;30.98;;;5.20;;
23745;SDS011;12053;48.878;9.632;2023-10-09T02:18:11;23.27;;;5.53;;
23745;SDS011;12053;48.878;9.632;2023-10-09T02:23:32;23.05;;;5.57;;
23745;SDS011;12053;48.878;9.632;2023-10-09T02:26:07;26.17;;;5.63;;
23745;SDS011;12053;48.878;9.632;2023-10-09T02:29:13;20.63;;;4.93;;
23745;SDS011;12053;48.878;9.632;2023-10-09T02:31:40;30.33;;;5.03;;
23745;SDS011;12053;48.878;9.632;2023-10-09T02:34:13;29.75;;;5.50;;
23745;SDS011;12053;48.878;9.632;2023-10-09T02:36:43;28.55;;;6.70;;
23745;SDS011;12053;48.878;9.632;2023-10-09T02:39:15;22.27;;;5.15;;
23745;SDS011;12053;48.878;9.632;2023-10-09T02:41:56;27.83;;;5.47;;
23745;SDS011;12053;48.878;9.632;2023-10-09T02:44:28;26.27;;;5.70;;
23745;SDS011;12053;48.878;9.632;2023-10-09T02:46:58;24.67;;;5.30;;
23745;SDS011;12053;48.878;9.632;2023-10-09T02:49:26;28.08;;;5.68;;
23745;SDS011;12053;48.878;9.632;2023-10-09T02:51:53;26.42;;;5.50;;
23745;SDS011;12053;48.878;9.632;2023-10-09T02:54:20;22.33;;;4.78;;
23745;SDS011;12053;48.878;9.632;2023-10-09T02:56:48;18.65;;;5.47;;
23745;SDS011;12053;48.878;9.632;2023-10-09T02:59:23;19.65;;;5.30;;
23745;SDS011;12053;48.878;9.632;2023-10-09T03:01:51;20.77;;;5.07;;
23745;SDS011;12053;48.878;9.632;2023-10-09T03:04:19;21.33;;;5.00;;
23745;SDS011;12053;48.878;9.632;2023-10-09T03:06:50;20.83;;;4.85;;
23745;SDS011;12053;48.878;9.632;2023-10-09T03:09:18;25.38;;;5.15;;
23745;SDS011;12053;48.878;9.632;2023-10-09T03:11:53;30.45;;;5.60;;
23745;SDS011;12053;48.878;9.632;2023-10-09T03:14:24;30.70;;;5.25;;
23745;SDS011;12053;48.878;9.632;2023-10-09T03:16:52;23.52;;;5.28;;
23745;SDS011;12053;48.878;9.632;2023-10-09T03:19:19;26.23;;;5.07;;
23745;SDS011;12053;48.878;9.632;2023-10-09T03:21:47;20.38;;;4.97;;
23745;SDS011;12053;48.878;9.632;2023-10-09T03:24:15;20.33;;;5.20;;
23745;SDS011;12053;48.878;9.632;2023-10-09T03:26:42;34.30;;;6.68;;
23745;SDS011;12053;48.878;9.632;2023-10-09T03:29:11;24.35;;;5.15;;
23745;SDS011;12053;48.878;9.632;2023-10-09T03:31:38;23.30;;;5.55;;
23745;SDS011;12053;48.878;9.632;2023-10-09T03:34:09;21.00;;;4.95;;
23745;SDS011;12053;48.878;9.632;2023-10-09T03:36:37;18.67;;;4.75;;
23745;SDS011;12053;48.878;9.632;2023-10-09T03:39:05;28.58;;;5.40;;
23745;SDS011;12053;48.878;9.632;2023-10-09T03:41:46;24.95;;;5.63;;
23745;SDS011;12053;48.878;9.632;2023-10-09T03:44:14;21.58;;;4.93;;
23745;SDS011;12053;48.878;9.632;2023-10-09T03:46:45;21.80;;;5.25;;
23745;SDS011;12053;48.878;9.632;2023-10-09T03:49:12;26.45;;;5.78;;
23745;SDS011;12053;48.878;9.632;2023-10-09T03:51:39;22.67;;;4.88;;
23745;SDS011;12053;48.878;9.632;2023-10-09T03:54:08;18.00;;;4.50;;
23745;SDS011;12053;48.878;9.632;2023-10-09T03:56:35;23.50;;;6.00;;
23745;SDS011;12053;48.878;9.632;2023-10-09T03:59:02;22.45;;;6.15;;
23745;SDS011;12053;48.878;9.632;2023-10-09T04:01:31;21.27;;;4.60;;
23745;SDS011;12053;48.878;9.632;2023-10-09T04:04:05;24.70;;;4.90;;
23745;SDS011;12053;48.878;9.632;2023-10-09T04:06:40;19.35;;;4.75;;
23745;SDS011;12053;48.878;9.632;2023-10-09T04:09:08;22.55;;;4.30;;
23745;SDS011;12053;48.878;9.632;2023-10-09T04:11:48;20.05;;;4.53;;
23745;SDS011;12053;48.878;9.632;2023-10-09T04:14:34;21.40;;;4.45;;
23745;SDS011;12053;48.878;9.632;2023-10-09T04:17:02;24.20;;;5.03;;
23745;SDS011;12053;48.878;9.632;2023-10-09T04:19:35;15.70;;;5.13;;
23745;SDS011;12053;48.878;9.632;2023-10-09T04:22:14;30.33;;;5.40;;
23745;SDS011;12053;48.878;9.632;2023-10-09T04:24:53;21.45;;;5.85;;
23745;SDS011;12053;48.878;9.632;2023-10-09T04:27:20;18.77;;;4.65;;
23745;SDS011;12053;48.878;9.632;2023-10-09T04:29:53;21.38;;;5.40;;
23745;SDS011;12053;48.878;9.632;2023-10-09T04:32:20;21.05;;;4.70;;
23745;SDS011;12053;48.878;9.632;2023-10-09T04:34:51;22.90;;;5.03;;
23745;SDS011;12053;48.878;9.632;2023-10-09T04:37:38;17.83;;;4.70;;
23745;SDS011;12053;48.878;9.632;2023-10-09T04:40:08;16.55;;;4.57;;
23745;SDS011;12053;48.878;9.632;2023-10-09T04:42:41;16.95;;;4.40;;
23745;SDS011;12053;48.878;9.632;2023-10-09T04:45:29;20.05;;;4.68;;
23745;SDS011;12053;48.878;9.632;2023-10-09T04:48:15;18.15;;;4.50;;
23745;SDS011;12053;48.878;9.632;2023-10-09T04:50:59;21.70;;;4.68;;
23745;SDS011;12053;48.878;9.632;2023-10-09T04:54:00;21.38;;;4.82;;
23745;SDS011;12053;48.878;9.632;2023-10-09T04:56:40;21.83;;;4.88;;
23745;SDS011;12053;48.878;9.632;2023-10-09T04:59:18;23.58;;;4.97;;
23745;SDS011;12053;48.878;9.632;2023-10-09T05:01:46;20.67;;;4.75;;
23745;SDS011;12053;48.878;9.632;2023-10-09T05:04:25;20.80;;;5.38;;
23745;SDS011;12053;48.878;9.632;2023-10-09T05:07:01;17.55;;;4.38;;
23745;SDS011;12053;48.878;9.632;2023-10-09T05:09:51;17.13;;;4.35;;
23745;SDS011;12053;48.878;9.632;2023-10-09T05:12:40;16.05;;;4.47;;
23745;SDS011;12053;48.878;9.632;2023-10-09T05:15:13;25.15;;;4.45;;
23745;SDS011;12053;48.878;9.632;2023-10-09T05:17:41;23.05;;;5.22;;
23745;SDS011;12053;48.878;9.632;2023-10-09T05:20:18;21.88;;;5.30;;
23745;SDS011;12053;48.878;9.632;2023-10-09T05:22:51;18.42;;;4.65;;
23745;SDS011;12053;48.878;9.632;2023-10-09T05:25:26;17.85;;;4.85;;
23745;SDS011;12053;48.878;9.632;2023-10-09T05:28:12;17.98;;;4.30;;
23745;SDS011;12053;48.878;9.632;2023-10-09T05:30:52;24.73;;;4.72;;
23745;SDS011;12053;48.878;9.632;2023-10-09T05:33:33;17.00;;;4.38;;
23745;SDS011;12053;48.878;9.632;2023-10-09T05:36:03;19.90;;;5.00;;
23745;SDS011;12053;48.878;9.632;2023-10-09T05:38:49;19.42;;;4.68;;
23745;SDS011;12053;48.878;9.632;2023-10-09T05:41:43;16.95;;;5.70;;
23745;SDS011;12053;48.878;9.632;2023-10-09T05:44:14;20.67;;;4.40;;
23745;SDS011;12053;48.878;9.632;2023-10-09T05:47:00;17.90;;;4.07;;
23745;SDS011;12053;48.878;9.632;2023-10-09T05:49:50;15.75;;;4.40;;
23745;SDS011;12053;48.878;9.632;2023-10-09T05:52:44;24.70;;;4.32;;
23745;SDS011;12053;48.878;9.632;2023-10-09T05:55:17;24.08;;;4.88;;
23745;SDS011;12053;48.878;9.632;2023-10-09T06:00:36;15.52;;;4.25;;
23745;SDS011;12053;48.878;9.632;2023-10-09T06:03:22;23.70;;;4.70;;
23745;SDS011;12053;48.878;9.632;2023-10-09T06:05:51;20.83;;;5.22;;
23745;SDS011;12053;48.878;9.632;2023-10-09T06:08:29;25.27;;;4.63;;
23745;SDS011;12053;48.878;9.632;2023-10-09T06:11:09;23.05;;;5.78;;
23745;SDS011;12053;48.878;9.632;2023-10-09T06:13:55;23.13;;;6.40;;
23745;SDS011;12053;48.878;9.632;2023-10-09T06:16:30;24.52;;;7.65;;
23745;SDS011;12053;48.878;9.632;2023-10-09T06:19:26;20.42;;;6.70;;
23745;SDS011;12053;48.878;9.632;2023-10-09T06:24:30;22.38;;;7.75;;
23745;SDS011;12053;48.878;9.632;2023-10-09T06:27:09;22.77;;;6.25;;
23745;SDS011;12053;48.878;9.632;2023-10-09T06:29:36;27.77;;;6.85;;
23745;SDS011;12053;48.878;9.632;2023-10-09T06:32:04;20.30;;;6.55;;
23745;SDS011;12053;48.878;9.632;2023-10-09T06:34:49;28.08;;;6.57;;
23745;SDS011;12053;48.878;9.632;2023-10-09T06:37:19;23.25;;;6.32;;
23745;SDS011;12053;48.878;9.632;2023-10-09T06:39:49;27.23;;;5.57;;
23745;SDS011;12053;48.878;9.632;2023-10-09T06:42:36;26.98;;;6.28;;
23745;SDS011;12053;48.878;9.632;2023-10-09T06:45:07;17.23;;;5.38;;
23745;SDS011;12053;48.878;9.632;2023-10-09T06:47:48;24.25;;;4.97;;
23745;SDS011;12053;48.878;9.632;2023-10-09T06:50:23;15.20;;;5.55;;
23745;SDS011;12053;48.878;9.632;2023-10-09T06:52:51;19.15;;;5.30;;
23745;SDS011;12053;48.878;9.632;2023-10-09T06:55:38;20.38;;;5.57;;
23745;SDS011;12053;48.878;9.632;2023-10-09T06:58:20;23.25;;;5.40;;
23745;SDS011;12053;48.878;9.632;2023-10-09T07:00:54;22.30;;;5.07;;
23745;SDS011;12053;48.878;9.632;2023-10-09T07:03:28;24.52;;;5.38;;
23745;SDS011;12053;48.878;9.632;2023-10-09T07:08:36;22.02;;;5.07;;
23745;SDS011;12053;48.878;9.632;2023-10-09T07:11:06;26.35;;;4.70;;
23745;SDS011;12053;48.878;9.632;2023-10-09T07:16:58;25.98;;;5.03;;
23745;SDS011;12053;48.878;9.632;2023-10-09T07:19:27;17.73;;;3.83;;
23745;SDS011;12053;48.878;9.632;2023-10-09T07:22:01;17.58;;;4.53;;
23745;SDS011;12053;48.878;9.632;2023-10-09T07:24:42;26.10;;;4.57;;
23745;SDS011;12053;48.878;9.632;2023-10-09T07:27:10;20.45;;;4.70;;
23745;SDS011;12053;48.878;9.632;2023-10-09T07:29:40;46.95;;;8.02;;
23745;SDS011;12053;48.878;9.632;2023-10-09T07:32:17;16.20;;;4.10;;
23745;SDS011;12053;48.878;9.632;2023-10-09T07:34:48;20.58;;;5.60;;
23745;SDS011;12053;48.878;9.632;2023-10-09T07:37:28;15.20;;;4.45;;
23745;SDS011;12053;48.878;9.632;2023-10-09T07:40:04;20.50;;;5.05;;
23745;SDS011;12053;48.878;9.632;2023-10-09T07:42:34;18.40;;;4.30;;
23745;SDS011;12053;48.878;9.632;2023-10-09T07:45:07;15.95;;;3.97;;
23745;SDS011;12053;48.878;9.632;2023-10-09T07:47:58;25.08;;;4.35;;
23745;SDS011;12053;48.878;9.632;2023-10-09T07:50:26;16.63;;;4.65;;
23745;SDS011;12053;48.878;9.632;2023-10-09T07:53:07;21.35;;;4.90;;
23745;SDS011;12053;48.878;9.632;2023-10-09T07:55:53;21.80;;;4.55;;
23745;SDS011;12053;48.878;9.632;2023-10-09T07:58:22;17.33;;;4.88;;
23745;SDS011;12053;48.878;9.632;2023-10-09T08:00:55;17.67;;;4.97;;
23745;SDS011;12053;48.878;9.632;2023-10-09T08:03:36;24.75;;;4.30;;
23745;SDS011;12053;48.878;9.632;2023-10-09T08:06:03;17.42;;;3.70;;
23745;SDS011;12053;48.878;9.632;2023-10-09T08:08:56;18.88;;;4.05;;
23745;SDS011;12053;48.878;9.632;2023-10-09T08:11:29;17.00;;;4.47;;
23745;SDS011;12053;48.878;9.632;2023-10-09T08:14:12;17.15;;;4.35;;
23745;SDS011;12053;48.878;9.632;2023-10-09T08:16:50;24.75;;;4.68;;
23745;SDS011;12053;48.878;9.632;2023-10-09T08:19:38;17.70;;;4.18;;
23745;SDS011;12053;48.878;9.632;2023-10-09T08:24:50;24.02;;;4.85;;
23745;SDS011;12053;48.878;9.632;2023-10-09T08:32:46;19.35;;;4.20;;
23745;SDS011;12053;48.878;9.632;2023-10-09T08:38:00;30.98;;;5.80;;
23745;SDS011;12053;48.878;9.632;2023-10-09T08:40:35;21.40;;;3.90;;
23745;SDS011;12053;48.878;9.632;2023-10-09T08:45:38;22.73;;;4.35;;
23745;SDS011;12053;48.878;9.632;2023-10-09T08:48:07;20.48;;;4.47;;
23745;SDS011;12053;48.878;9.632;2023-10-09T08:50:38;20.88;;;3.97;;
23745;SDS011;12053;48.878;9.632;2023-10-09T08:53:07;20.48;;;4.15;;
23745;SDS011;12053;48.878;9.632;2023-10-09T08:55:34;20.77;;;5.10;;
23745;SDS011;12053;48.878;9.632;2023-10-09T08:58:05;20.02;;;4.60;;
23745;SDS011;12053;48.878;9.632;2023-10-09T09:00:39;22.73;;;4.35;;
23745;SDS011;12053;48.878;9.632;2023-10-09T09:03:16;20.08;;;5.35;;
23745;SDS011;12053;48.878;9.632;2023-10-09T09:05:46;15.45;;;4.40;;
23745;SDS011;12053;48.878;9.632;2023-10-09T09:08:21;20.20;;;4.38;;
23745;SDS011;12053;48.878;9.632;2023-10-09T09:11:01;23.10;;;4.60;;
23745;SDS011;12053;48.878;9.632;2023-10-09T09:13:39;15.80;;;4.25;;
23745;SDS011;12053;48.878;9.632;2023-10-09T09:16:15;22.90;;;4.80;;
23745;SDS011;12053;48.878;9.632;2023-10-09T09:18:56;17.88;;;4.65;;
23745;SDS011;12053;48.878;9.632;2023-10-09T09:21:27;26.17;;;4.90;;
23745;SDS011;12053;48.878;9.632;2023-10-09T09:23:56;25.98;;;5.03;;
23745;SDS011;12053;48.878;9.632;2023-10-09T09:26:34;16.63;;;4.60;;
23745;SDS011;12053;48.878;9.632;2023-10-09T09:29:04;19.42;;;4.55;;
23745;SDS011;12053;48.878;9.632;2023-10-09T09:31:35;23.95;;;4.97;;
23745;SDS011;12053;48.878;9.632;2023-10-09T09:34:05;25.25;;;5.53;;
23745;SDS011;12053;48.878;9.632;2023-10-09T09:36:49;24.05;;;5.00;;
23745;SDS011;12053;48.878;9.632;2023-10-09T09:39:24;26.15;;;5.22;;
23745;SDS011;12053;48.878;9.632;2023-10-09T09:42:10;19.67;;;5.20;;
23745;SDS011;12053;48.878;9.632;2023-10-09T09:44:41;21.00;;;4.85;;
23745;SDS011;12053;48.878;9.632;2023-10-09T09:47:15;20.73;;;4.22;;
23745;SDS011;12053;48.878;9.632;2023-10-09T09:49:51;21.48;;;4.50;;
23745;SDS011;12053;48.878;9.632;2023-10-09T09:52:19;24.02;;;4.50;;
23745;SDS011;12053;48.878;9.632;2023-10-09T09:54:51;26.03;;;4.43;;
23745;SDS011;12053;48.878;9.632;2023-10-09T09:57:18;24.55;;;5.28;;
23745;SDS011;12053;48.878;9.632;2023-10-09T09:59:52;22.45;;;4.53;;
23745;SDS011;12053;48.878;9.632;2023-10-09T10:02:23;20.90;;;4.45;;
23745;SDS011;12053;48.878;9.632;2023-10-09T10:04:55;22.83;;;4.88;;
23745;SDS011;12053;48.878;9.632;2023-10-09T10:07:24;21.50;;;4.32;;
23745;SDS011;12053;48.878;9.632;2023-10-09T10:09:55;21.83;;;5.00;;
23745;SDS011;12053;48.878;9.632;2023-10-09T10:15:12;23.40;;;4.88;;
23745;SDS011;12053;48.878;9.632;2023-10-09T10:20:26;18.08;;;4.13;;
23745;SDS011;12053;48.878;9.632;2023-10-09T10:23:16;20.27;;;4.45;;
23745;SDS011;12053;48.878;9.632;2023-10-09T10:25:44;25.08;;;5.57;;
23745;SDS011;12053;48.878;9.632;2023-10-09T10:28:22;21.17;;;5.17;;
23745;SDS011;12053;48.878;9.632;2023-10-09T10:31:06;22.27;;;5.03;;
23745;SDS011;12053;48.878;9.632;2023-10-09T10:36:22;22.08;;;5.10;;
23745;SDS011;12053;48.878;9.632;2023-10-09T10:39:25;21.60;;;4.78;;
23745;SDS011;12053;48.878;9.632;2023-10-09T10:44:33;18.95;;;4.15;;
23745;SDS011;12053;48.878;9.632;2023-10-09T10:47:06;14.15;;;3.67;;
23745;SDS011;12053;48.878;9.632;2023-10-09T10:49:50;30.17;;;5.22;;
23745;SDS011;12053;48.878;9.632;2023-10-09T10:52:21;24.52;;;4.55;;
23745;SDS011;12053;48.878;9.632;2023-10-09T10:54:49;21.25;;;4.60;;
23745;SDS011;12053;48.878;9.632;2023-10-09T10:57:36;18.45;;;4.85;;
23745;SDS011;12053;48.878;9.632;2023-10-09T11:00:19;31.05;;;5.28;;
23745;SDS011;12053;48.878;9.632;2023-10-09T11:03:05;19.73;;;4.20;;
23745;SDS011;12053;48.878;9.632;2023-10-09T11:05:56;21.70;;;4.28;;
23745;SDS011;12053;48.878;9.632;2023-10-09T11:08:43;19.27;;;4.63;;
23745;SDS011;12053;48.878;9.632;2023-10-09T11:11:20;19.92;;;5.05;;
23745;SDS011;12053;48.878;9.632;2023-10-09T11:13:48;33.08;;;5.53;;
23745;SDS011;12053;48.878;9.632;2023-10-09T11:16:20;20.95;;;4.53;;
23745;SDS011;12053;48.878;9.632;2023-10-09T11:19:11;27.10;;;4.75;;
23745;SDS011;12053;48.878;9.632;2023-10-09T11:21:50;19.52;;;4.22;;
23745;SDS011;12053;48.878;9.632;2023-10-09T11:24:26;17.40;;;4.03;;
23745;SDS011;12053;48.878;9.632;2023-10-09T11:26:57;22.23;;;4.40;;
23745;SDS011;12053;48.878;9.632;2023-10-09T11:29:35;16.98;;;4.45;;
23745;SDS011;12053;48.878;9.632;2023-10-09T11:32:15;23.10;;;4.90;;
23745;SDS011;12053;48.878;9.632;2023-10-09T11:34:49;19.60;;;4.45;;
23745;SDS011;12053;48.878;9.632;2023-10-09T11:39:56;22.48;;;5.07;;
23745;SDS011;12053;48.878;9.632;2023-10-09T11:42:26;18.15;;;4.55;;
23745;SDS011;12053;48.878;9.632;2023-10-09T11:45:23;19.83;;;4.05;;
23745;SDS011;12053;48.878;9.632;2023-10-09T11:47:52;17.00;;;4.10;;
23745;SDS011;12053;48.878;9.632;2023-10-09T11:50:45;24.55;;;4.63;;
23745;SDS011;12053;48.878;9.632;2023-10-09T11:53:28;21.50;;;4.47;;
23745;SDS011;12053;48.878;9.632;2023-10-09T11:55:55;17.73;;;4.10;;
23745;SDS011;12053;48.878;9.632;2023-10-09T11:58:24;21.10;;;4.35;;
23745;SDS011;12053;48.878;9.632;2023-10-09T12:00:56;19.58;;;5.25;;
23745;SDS011;12053;48.878;9.632;2023-10-09T12:03:30;15.32;;;4.38;;
23745;SDS011;12053;48.878;9.632;2023-10-09T12:05:58;18.65;;;4.95;;
23745;SDS011;12053;48.878;9.632;2023-10-09T12:08:38;16.73;;;4.22;;
23745;SDS011;12053;48.878;9.632;2023-10-09T12:11:06;26.88;;;4.88;;
23745;SDS011;12053;48.878;9.632;2023-10-09T12:13:39;22.38;;;4.65;;
23745;SDS011;12053;48.878;9.632;2023-10-09T12:16:08;20.83;;;4.47;;
23745;SDS011;12053;48.878;9.632;2023-10-09T12:18:36;20.40;;;5.00;;
23745;SDS011;12053;48.878;9.632;2023-10-09T12:21:06;17.35;;;4.88;;
23745;SDS011;12053;48.878;9.632;2023-10-09T12:23:34;19.75;;;4.68;;
23745;SDS011;12053;48.878;9.632;2023-10-09T12:26:06;19.23;;;4.30;;
23745;SDS011;12053;48.878;9.632;2023-10-09T12:28:41;19.10;;;4.68;;
23745;SDS011;12053;48.878;9.632;2023-10-09T12:31:13;23.17;;;5.00;;
23745;SDS011;12053;48.878;9.632;2023-10-09T12:33:47;23.40;;;5.50;;
23745;SDS011;12053;48.878;9.632;2023-10-09T12:36:16;17.70;;;4.72;;
23745;SDS011;12053;48.878;9.632;2023-10-09T12:38:46;21.88;;;4.97;;
23745;SDS011;12053;48.878;9.632;2023-10-09T12:41:19;22.73;;;4.75;;
23745;SDS011;12053;48.878;9.632;2023-10-09T12:43:52;24.45;;;5.43;;
23745;SDS011;12053;48.878;9.632;2023-10-09T12:46:20;27.38;;;6.53;;
23745;SDS011;12053;48.878;9.632;2023-10-09T12:48:52;40.92;;;12.43;;
23745;SDS011;12053;48.878;9.632;2023-10-09T12:51:23;21.13;;;4.88;;
23745;SDS011;12053;48.878;9.632;2023-10-09T12:53:56;19.48;;;4.80;;
23745;SDS011;12053;48.878;9.632;2023-10-09T12:56:24;26.20;;;5.03;;
23745;SDS011;12053;48.878;9.632;2023-10-09T12:59:04;17.15;;;4.72;;
23745;SDS011;12053;48.878;9.632;2023-10-09T13:01:33;25.45;;;5.15;;
23745;SDS011;12053;48.878;9.632;2023-10-09T13:04:09;19.70;;;4.80;;
23745;SDS011;12053;48.878;9.632;2023-10-09T13:06:38;18.13;;;4.28;;
23745;SDS011;12053;48.878;9.632;2023-10-09T13:09:12;15.93;;;4.47;;
23745;SDS011;12053;48.878;9.632;2023-10-09T13:11:40;18.63;;;5.10;;
23745;SDS011;12053;48.878;9.632;2023-10-09T13:14:11;22.83;;;4.43;;
23745;SDS011;12053;48.878;9.632;2023-10-09T13:16:44;14.90;;;4.90;;
23745;SDS011;12053;48.878;9.632;2023-10-09T13:19:12;22.17;;;5.40;;
23745;SDS011;12053;48.878;9.632;2023-10-09T13:21:39;20.73;;;4.85;;
23745;SDS011;12053;48.878;9.632;2023-10-09T13:24:07;16.90;;;5.15;;
23745;SDS011;12053;48.878;9.632;2023-10-09T13:26:43;18.38;;;5.25;;
23745;SDS011;12053;48.878;9.632;2023-10-09T13:29:17;15.88;;;5.30;;
23745;SDS011;12053;48.878;9.632;2023-10-09T13:31:51;17.08;;;5.85;;
23745;SDS011;12053;48.878;9.632;2023-10-09T13:34:24;17.35;;;5.45;;
23745;SDS011;12053;48.878;9.632;2023-10-09T13:36:54;20.48;;;5.20;;
23745;SDS011;12053;48.878;9.632;2023-10-09T13:39:25;18.45;;;5.03;;
23745;SDS011;12053;48.878;9.632;2023-10-09T13:41:54;20.67;;;5.43;;
23745;SDS011;12053;48.878;9.632;2023-10-09T13:44:27;11.90;;;5.18;;
23745;SDS011;12053;48.878;9.632;2023-10-09T13:46:55;18.33;;;5.18;;
23745;SDS011;12053;48.878;9.632;2023-10-09T13:49:22;19.95;;;6.13;;
23745;SDS011;12053;48.878;9.632;2023-10-09T13:51:51;15.02;;;5.10;;
23745;SDS011;12053;48.878;9.632;2023-10-09T13:54:22;13.93;;;5.20;;
23745;SDS011;12053;48.878;9.632;2023-10-09T13:56:59;14.38;;;5.63;;
23745;SDS011;12053;48.878;9.632;2023-10-09T13:59:30;19.33;;;5.88;;
23745;SDS011;12053;48.878;9.632;2023-10-09T14:01:57;18.15;;;5.97;;
23745;SDS011;12053;48.878;9.632;2023-10-09T14:04:26;16.23;;;5.53;;
23745;SDS011;12053;48.878;9.632;2023-10-09T14:06:53;17.15;;;5.53;;
23745;SDS011;12053;48.878;9.632;2023-10-09T14:09:27;20.33;;;6.25;;
23745;SDS011;12053;48.878;9.632;2023-10-09T14:11:57;21.05;;;6.43;;
23745;SDS011;12053;48.878;9.632;2023-10-09T14:17:16;18.48;;;6.68;;
23745;SDS011;12053;48.878;9.632;2023-10-09T14:19:53;16.83;;;6.78;;
23745;SDS011;12053;48.878;9.632;2023-10-09T14:22:22;11.73;;;6.20;;
23745;SDS011;12053;48.878;9.632;2023-10-09T14:24:56;17.92;;;6.40;;
23745;SDS011;12053;48.878;9.632;2023-10-09T14:27:23;17.80;;;6.82;;
23745;SDS011;12053;48.878;9.632;2023-10-09T14:29:56;14.38;;;7.10;;
23745;SDS011;12053;48.878;9.632;2023-10-09T14:32:27;12.88;;;6.00;;
23745;SDS011;12053;48.878;9.632;2023-10-09T14:35:10;15.90;;;6.32;;
23745;SDS011;12053;48.878;9.632;2023-10-09T14:37:40;15.65;;;6.65;;
23745;SDS011;12053;48.878;9.632;2023-10-09T14:40:08;16.42;;;6.85;;
23745;SDS011;12053;48.878;9.632;2023-10-09T14:42:47;13.85;;;6.88;;
23745;SDS011;12053;48.878;9.632;2023-10-09T14:45:23;17.27;;;6.68;;
23745;SDS011;12053;48.878;9.632;2023-10-09T14:47:55;17.80;;;6.82;;
23745;SDS011;12053;48.878;9.632;2023-10-09T14:50:22;15.93;;;6.63;;
23745;SDS011;12053;48.878;9.632;2023-10-09T14:52:50;19.10;;;7.40;;
23745;SDS011;12053;48.878;9.632;2023-10-09T14:55:17;15.82;;;6.88;;
23745;SDS011;12053;48.878;9.632;2023-10-09T14:57:55;20.63;;;7.53;;
23745;SDS011;12053;48.878;9.632;2023-10-09T15:00:25;13.50;;;6.63;;
23745;SDS011;12053;48.878;9.632;2023-10-09T15:02:52;21.20;;;7.07;;
23745;SDS011;12053;48.878;9.632;2023-10-09T15:05:20;17.63;;;6.82;;
23745;SDS011;12053;48.878;9.632;2023-10-09T15:07:49;17.33;;;6.97;;
23745;SDS011;12053;48.878;9.632;2023-10-09T15:10:16;11.95;;;6.30;;
23745;SDS011;12053;48.878;9.632;2023-10-09T15:12:44;15.55;;;6.15;;
23745;SDS011;12053;48.878;9.632;2023-10-09T15:15:15;15.45;;;6.78;;
23745;SDS011;12053;48.878;9.632;2023-10-09T15:17:43;13.93;;;6.93;;
23745;SDS011;12053;48.878;9.632;2023-10-09T15:20:12;14.68;;;6.63;;
23745;SDS011;12053;48.878;9.632;2023-10-09T15:22:43;17.42;;;6.85;;
23745;SDS011;12053;48.878;9.632;2023-10-09T15:25:11;17.58;;;6.53;;
23745;SDS011;12053;48.878;9.632;2023-10-09T15:27:43;15.65;;;7.40;;
23745;SDS011;12053;48.878;9.632;2023-10-09T15:30:10;15.38;;;6.35;;
23745;SDS011;12053;48.878;9.632;2023-10-09T15:32:43;15.93;;;6.80;;
23745;SDS011;12053;48.878;9.632;2023-10-09T15:35:11;12.88;;;6.07;;
23745;SDS011;12053;48.878;9.632;2023-10-09T15:37:40;16.95;;;7.20;;
23745;SDS011;12053;48.878;9.632;2023-10-09T15:40:07;18.02;;;6.95;;
23745;SDS011;12053;48.878;9.632;2023-10-09T15:42:41;12.85;;;6.07;;
23745;SDS011;12053;48.878;9.632;2023-10-09T15:45:09;16.15;;;6.93;;
23745;SDS011;12053;48.878;9.632;2023-10-09T15:47:38;14.95;;;6.72;;
23745;SDS011;12053;48.878;9.632;2023-10-09T15:50:06;12.68;;;6.05;;
23745;SDS011;12053;48.878;9.632;2023-10-09T15:52:39;13.02;;;6.47;;
23745;SDS011;12053;48.878;9.632;2023-10-09T15:55:07;19.50;;;6.75;;
23745;SDS011;12053;48.878;9.632;2023-10-09T16:00:07;14.02;;;6.28;;
23745;SDS011;12053;48.878;9.632;2023-10-09T16:02:44;17.35;;;7.20;;
23745;SDS011;12053;48.878;9.632;2023-10-09T16:05:12;15.13;;;6.53;;
23745;SDS011;12053;48.878;9.632;2023-10-09T16:07:39;13.40;;;6.10;;